Time;durP1;ratioP1;P1;durP2;ratioP2;P2;SDS_P1;SDS_P2;PMS_P1;PMS_P2;Temp;Humidity;BMP_temperature;BMP_pressure;BME280_temperature;BME280_humidity;BME280_pressure;Samples;Min_cycle;Max_cycle;Signal;HPM_P1;HPM_P2
2024/01/15 00:01:34;;;;;;;11.07;2.92;;;1.40;99.90;;;;;;5047460;28;20552;-67
2024/01/15 00:04:00;;;;;;;13.37;1.63;;;1.40;99.90;;;;;;5028028;28;20053;-66
2024/01/15 00:06:26;;;;;;;14.90;1.65;;;1.40;99.90;;;;;;5027549;28;20047;-66
2024/01/15 00:08:52;;;;;;;10.40;1.42;;;1.40;99.90;;;;;;5026272;28;20038;-67
2024/01/15 00:11:18;;;;;;;19.53;2.13;;;1.40;99.90;;;;;;5024808;28;20416;-66
2024/01/15 00:13:43;;;;;;;19.40;3.27;;;1.40;99.90;;;;;;5027831;28;20041;-67
2024/01/15 00:16:10;;;;;;;17.20;2.37;;;1.40;99.90;;;;;;5023204;28;20072;-67
2024/01/15 00:18:35;;;;;;;15.48;1.38;;;1.40;99.90;;;;;;5026564;28;20048;-66
2024/01/15 00:21:01;;;;;;;12.80;1.13;;;1.30;99.90;;;;;;5027812;28;20049;-67
2024/01/15 00:23:27;;;;;;;16.27;1.33;;;1.30;99.90;;;;;;5025066;28;20324;-67
2024/01/15 00:25:52;;;;;;;18.30;2.13;;;1.30;99.90;;;;;;5026044;28;20168;-66
2024/01/15 00:28:18;;;;;;;11.60;2.20;;;1.30;99.90;;;;;;5028347;28;20086;-67
2024/01/15 00:30:44;;;;;;;17.47;1.93;;;1.30;99.90;;;;;;5037290;28;20095;-66
2024/01/15 00:33:12;;;;;;;9.60;1.70;;;1.30;99.90;;;;;;5034772;28;20041;-67
2024/01/15 00:35:37;;;;;;;13.25;2.00;;;1.30;99.90;;;;;;5030140;28;20087;-66
2024/01/15 00:38:03;;;;;;;7.63;1.00;;;1.30;99.90;;;;;;5030367;28;20435;-66
2024/01/15 00:40:29;;;;;;;12.88;1.65;;;1.30;99.90;;;;;;5032068;28;20474;-67
2024/01/15 00:42:54;;;;;;;12.83;1.67;;;1.30;99.90;;;;;;5031934;28;20045;-67
2024/01/15 00:45:20;;;;;;;13.20;1.80;;;1.30;99.90;;;;;;5031958;28;20041;-67
2024/01/15 00:47:46;;;;;;;5.80;1.43;;;1.30;99.90;;;;;;5031341;28;20069;-67
2024/01/15 00:50:11;;;;;;;11.83;1.67;;;1.20;99.90;;;;;;5032035;28;20048;-67
2024/01/15 00:52:37;;;;;;;16.13;3.13;;;1.20;99.90;;;;;;5047525;28;20060;-66
2024/01/15 00:55:03;;;;;;;14.13;1.80;;;1.20;99.90;;;;;;5050089;28;20040;-67
2024/01/15 00:57:28;;;;;;;10.02;1.23;;;1.20;99.90;;;;;;5048189;28;20069;-67
2024/01/15 00:59:54;;;;;;;19.23;1.47;;;1.20;99.90;;;;;;5030168;28;20520;-67
2024/01/15 01:02:20;;;;;;;11.73;1.75;;;1.20;99.90;;;;;;5026709;28;20546;-67
2024/01/15 01:04:45;;;;;;;19.50;2.37;;;1.20;99.90;;;;;;5045689;28;20049;-66
2024/01/15 01:07:11;;;;;;;10.07;1.37;;;1.20;99.90;;;;;;5051938;28;20342;-66
2024/01/15 01:09:37;;;;;;;16.83;1.70;;;1.20;99.90;;;;;;5051463;28;20581;-67
2024/01/15 01:12:02;;;;;;;13.07;1.83;;;1.20;99.90;;;;;;5051150;28;20039;-67
2024/01/15 01:14:28;;;;;;;15.95;2.50;;;1.20;99.90;;;;;;5051204;28;20033;-67
2024/01/15 01:16:53;;;;;;;18.93;1.70;;;1.20;99.90;;;;;;5044860;28;20041;-67
2024/01/15 01:19:19;;;;;;;9.57;1.23;;;1.20;99.90;;;;;;5050036;28;20094;-67
2024/01/15 01:21:45;;;;;;;11.40;1.40;;;1.30;99.90;;;;;;5050961;28;20041;-66
2024/01/15 01:24:10;;;;;;;13.93;2.07;;;1.30;99.90;;;;;;5049618;28;20088;-67
2024/01/15 01:26:36;;;;;;;18.10;2.10;;;1.30;99.90;;;;;;5051103;28;20033;-66
2024/01/15 01:29:02;;;;;;;16.00;2.50;;;1.40;99.90;;;;;;5050700;28;20060;-66
2024/01/15 01:31:27;;;;;;;12.03;1.10;;;1.40;99.90;;;;;;5050821;28;20058;-67
2024/01/15 01:33:53;;;;;;;13.57;1.80;;;1.40;99.90;;;;;;5031200;28;20052;-67
2024/01/15 01:36:18;;;;;;;13.20;1.67;;;1.50;99.90;;;;;;5035938;28;20640;-67
2024/01/15 01:38:44;;;;;;;13.03;1.60;;;1.50;99.90;;;;;;5027395;28;20548;-67
2024/01/15 01:41:10;;;;;;;14.65;2.25;;;1.50;99.90;;;;;;5027330;28;20048;-67
2024/01/15 01:43:36;;;;;;;15.07;1.15;;;1.50;99.90;;;;;;5029978;28;20416;-66
2024/01/15 01:46:03;;;;;;;18.00;2.90;;;1.50;99.90;;;;;;5012021;28;20052;-67
2024/01/15 01:48:30;;;;;;;15.88;2.80;;;1.50;99.90;;;;;;5027195;28;20084;-67
2024/01/15 01:50:59;;;;;;;9.35;1.27;;;1.50;99.90;;;;;;5029933;28;20057;-67
2024/01/15 01:53:26;;;;;;;13.07;1.15;;;1.60;99.90;;;;;;5029953;28;20044;-67
2024/01/15 01:55:53;;;;;;;25.98;2.55;;;1.50;99.90;;;;;;5028338;28;20439;-67
2024/01/15 01:58:19;;;;;;;;;;;1.50;99.90;;;;;;5030975;28;20037;-67
2024/01/15 02:00:46;;;;;;;13.32;1.60;;;1.50;99.90;;;;;;5029525;28;20407;-66
2024/01/15 02:03:12;;;;;;;16.38;1.42;;;1.50;99.90;;;;;;5026333;28;20042;-67
2024/01/15 02:05:40;;;;;;;11.23;1.73;;;1.60;99.90;;;;;;5030202;28;20116;-67
2024/01/15 02:08:06;;;;;;;15.55;1.85;;;1.50;99.90;;;;;;5030013;28;20328;-67
2024/01/15 02:10:32;;;;;;;12.40;1.47;;;1.50;99.90;;;;;;5023652;28;20115;-67
2024/01/15 02:12:57;;;;;;;14.63;2.08;;;1.50;99.90;;;;;;5029616;28;20268;-67
2024/01/15 02:15:23;;;;;;;11.93;1.83;;;1.50;99.90;;;;;;5029565;28;20033;-67
2024/01/15 02:18:02;;;;;;;16.27;2.93;;;1.40;99.90;;;;;;5029726;28;20103;-67
2024/01/15 02:20:28;;;;;;;11.20;1.33;;;1.40;99.90;;;;;;5022460;28;20416;-67
2024/01/15 02:22:54;;;;;;;21.23;3.00;;;1.30;99.90;;;;;;5029446;28;20055;-67
2024/01/15 02:25:20;;;;;;;11.38;1.50;;;1.30;99.90;;;;;;5029016;28;20853;-68
2024/01/15 02:27:47;;;;;;;13.43;1.77;;;1.30;99.90;;;;;;5029742;28;20116;-67
2024/01/15 02:30:12;;;;;;;;;;;1.30;99.90;;;;;;5034166;28;20050;-66
2024/01/15 02:32:38;;;;;;;13.73;1.00;;;1.30;99.90;;;;;;5040260;28;20457;-66
2024/01/15 02:35:04;;;;;;;13.82;1.13;;;1.30;99.90;;;;;;5035779;28;20091;-67
2024/01/15 02:37:30;;;;;;;7.35;1.00;;;1.30;99.90;;;;;;5032154;28;20500;-66
2024/01/15 02:39:56;;;;;;;9.50;0.93;;;1.30;99.90;;;;;;5028042;28;20076;-66
2024/01/15 02:42:21;;;;;;;8.97;0.77;;;1.40;99.90;;;;;;5040259;28;20525;-67
2024/01/15 02:44:48;;;;;;;2.37;0.43;;;1.40;99.90;;;;;;5027837;28;20063;-66
2024/01/15 02:47:14;;;;;;;9.23;1.10;;;1.50;99.90;;;;;;5005533;28;20041;-67
2024/01/15 02:49:40;;;;;;;5.68;0.60;;;1.50;99.90;;;;;;5026720;28;20033;-67
2024/01/15 02:52:06;;;;;;;12.77;0.65;;;1.50;99.90;;;;;;5029608;28;20095;-67
2024/01/15 02:54:31;;;;;;;3.60;0.97;;;1.50;99.90;;;;;;5029244;28;20034;-67
2024/01/15 02:56:57;;;;;;;3.13;0.50;;;1.60;99.90;;;;;;5027866;28;20030;-67
2024/01/15 02:59:23;;;;;;;4.23;0.83;;;1.60;99.90;;;;;;5040506;28;20076;-67
2024/01/15 03:01:48;;;;;;;5.30;0.67;;;1.60;99.90;;;;;;5035828;28;20045;-68
2024/01/15 03:04:14;;;;;;;2.97;0.43;;;1.60;99.90;;;;;;5028032;28;20116;-67
2024/01/15 03:06:40;;;;;;;11.43;1.10;;;1.60;99.90;;;;;;5044320;28;20049;-67
2024/01/15 03:09:05;;;;;;;3.50;0.40;;;1.60;99.90;;;;;;5043245;28;20068;-67
2024/01/15 03:11:38;;;;;;;4.77;0.63;;;1.60;99.90;;;;;;5027123;28;20062;-67
2024/01/15 03:14:04;;;;;;;5.32;0.50;;;1.60;99.90;;;;;;5043348;28;20443;-67
2024/01/15 03:16:29;;;;;;;4.43;0.47;;;1.60;99.90;;;;;;5028395;28;20041;-67
2024/01/15 03:18:55;;;;;;;6.07;0.40;;;1.60;99.90;;;;;;5028028;28;21866;-67
2024/01/15 03:21:20;;;;;;;6.07;0.70;;;1.60;99.90;;;;;;5023802;28;20052;-67
2024/01/15 03:23:46;;;;;;;3.03;0.43;;;1.60;99.90;;;;;;5036468;28;20047;-67
2024/01/15 03:26:11;;;;;;;4.50;0.43;;;1.60;99.90;;;;;;5028510;28;20076;-67
2024/01/15 03:28:37;;;;;;;2.60;0.83;;;1.60;99.90;;;;;;5029007;28;20511;-67
2024/01/15 03:31:03;;;;;;;4.80;1.23;;;1.60;99.90;;;;;;5045558;28;20438;-67
2024/01/15 03:33:28;;;;;;;8.13;0.75;;;1.50;99.90;;;;;;5032330;28;20444;-67
2024/01/15 03:35:54;;;;;;;8.03;1.33;;;1.50;99.90;;;;;;5026451;28;20042;-67
2024/01/15 03:38:20;;;;;;;3.23;0.40;;;1.50;99.90;;;;;;5029465;28;20067;-67
2024/01/15 03:40:46;;;;;;;2.83;0.70;;;1.50;99.90;;;;;;5027080;28;20068;-67
2024/01/15 03:43:12;;;;;;;;;;;1.50;99.90;;;;;;5027701;28;20052;-67
2024/01/15 03:45:37;;;;;;;5.75;0.30;;;1.50;99.90;;;;;;5027347;28;19917;-68
2024/01/15 03:48:03;;;;;;;4.30;0.30;;;1.40;99.90;;;;;;5027304;28;20040;-67
2024/01/15 03:50:29;;;;;;;4.57;0.60;;;1.40;99.90;;;;;;5028730;28;20050;-67
2024/01/15 03:52:54;;;;;;;1.20;0.50;;;1.40;99.90;;;;;;5028641;28;20041;-67
2024/01/15 03:55:20;;;;;;;4.53;0.40;;;1.40;99.90;;;;;;5028086;28;20034;-68
2024/01/15 03:57:46;;;;;;;3.73;0.50;;;1.30;99.90;;;;;;5027142;28;20109;-67
2024/01/15 04:00:12;;;;;;;7.90;0.80;;;1.30;99.90;;;;;;5024583;28;20049;-67
2024/01/15 04:02:37;;;;;;;14.88;2.58;;;1.40;99.90;;;;;;5027222;28;20041;-67
2024/01/15 04:05:03;;;;;;;7.73;1.00;;;1.40;99.90;;;;;;5027304;28;20399;-69
2024/01/15 04:07:29;;;;;;;11.32;0.85;;;1.40;99.90;;;;;;5028617;28;20488;-67
2024/01/15 04:09:54;;;;;;;10.07;1.07;;;1.50;99.90;;;;;;5029224;28;20049;-67
2024/01/15 04:12:20;;;;;;;6.53;0.77;;;1.50;99.90;;;;;;5031105;28;20032;-67
2024/01/15 04:14:46;;;;;;;7.47;0.77;;;1.50;99.90;;;;;;5031985;28;20041;-67
2024/01/15 04:17:11;;;;;;;10.50;2.07;;;1.50;99.90;;;;;;5030680;28;20041;-67
2024/01/15 04:19:37;;;;;;;10.90;1.20;;;1.50;99.90;;;;;;5032417;28;20041;-67
2024/01/15 04:22:02;;;;;;;11.83;1.03;;;1.50;99.90;;;;;;5031323;28;20037;-67
2024/01/15 04:24:28;;;;;;;16.40;2.57;;;1.50;99.90;;;;;;5038250;28;20036;-67
2024/01/15 04:26:53;;;;;;;14.27;1.20;;;1.50;99.90;;;;;;5056470;28;20490;-68
2024/01/15 04:29:19;;;;;;;24.23;2.50;;;1.50;99.90;;;;;;5030798;28;20038;-67
2024/01/15 04:31:45;;;;;;;11.53;1.10;;;1.50;99.90;;;;;;5031760;28;20038;-67
2024/01/15 04:34:10;;;;;;;12.83;1.00;;;1.50;99.90;;;;;;5038565;28;20069;-67
2024/01/15 04:36:40;;;;;;;14.10;2.10;;;1.50;99.90;;;;;;5027586;28;20044;-67
2024/01/15 04:39:06;;;;;;;12.05;1.27;;;1.50;99.90;;;;;;5029856;28;20080;-67
2024/01/15 04:41:32;;;;;;;15.45;1.80;;;1.50;99.90;;;;;;5027085;28;20068;-67
2024/01/15 04:43:58;;;;;;;12.77;1.77;;;1.50;99.90;;;;;;5027366;28;20037;-67
2024/01/15 04:46:23;;;;;;;13.40;1.50;;;1.50;99.90;;;;;;5027857;28;20104;-67
2024/01/15 04:48:49;;;;;;;9.40;1.33;;;1.60;99.90;;;;;;5029002;28;20087;-67
2024/01/15 04:51:14;;;;;;;9.33;1.50;;;1.60;99.90;;;;;;5031680;28;20109;-68
2024/01/15 04:53:41;;;;;;;9.80;1.43;;;1.60;99.90;;;;;;5029570;28;20400;-68
2024/01/15 04:56:06;;;;;;;;;;;1.60;99.90;;;;;;5032419;28;20451;-67
2024/01/15 04:58:32;;;;;;;9.75;1.02;;;1.60;99.90;;;;;;5031843;28;19920;-67
2024/01/15 05:00:57;;;;;;;12.77;1.77;;;1.60;99.90;;;;;;5031385;28;20050;-67
2024/01/15 05:03:23;;;;;;;13.60;2.00;;;1.60;99.90;;;;;;5035511;28;20125;-67
2024/01/15 05:05:49;;;;;;;11.33;1.90;;;1.60;99.90;;;;;;5030100;28;20511;-67
2024/01/15 05:08:14;;;;;;;14.67;1.70;;;1.60;99.90;;;;;;5029794;28;20033;-67
2024/01/15 05:10:40;;;;;;;10.97;2.83;;;1.60;99.90;;;;;;5031361;28;20041;-67
2024/01/15 05:13:05;;;;;;;10.63;1.23;;;1.50;99.90;;;;;;5031543;28;20029;-67
2024/01/15 05:15:31;;;;;;;24.43;3.00;;;1.60;99.90;;;;;;5030788;28;20041;-67
2024/01/15 05:17:57;;;;;;;14.47;2.00;;;1.60;99.90;;;;;;5030753;28;20121;-67
2024/01/15 05:20:22;;;;;;;14.53;2.07;;;1.50;99.90;;;;;;5031179;28;20045;-67
2024/01/15 05:22:48;;;;;;;10.00;1.50;;;1.60;99.90;;;;;;5030479;28;20411;-67
2024/01/15 05:25:13;;;;;;;10.97;1.40;;;1.50;99.90;;;;;;5031200;28;20041;-68
2024/01/15 05:27:39;;;;;;;7.90;0.77;;;1.60;99.90;;;;;;5024805;28;20447;-67
2024/01/15 05:30:05;;;;;;;28.43;3.77;;;1.60;99.90;;;;;;5031296;28;20128;-67
2024/01/15 05:32:31;;;;;;;10.75;1.63;;;1.60;99.90;;;;;;5029878;28;20415;-67
2024/01/15 05:34:57;;;;;;;15.68;2.17;;;1.60;99.90;;;;;;5030412;28;20049;-67
2024/01/15 05:37:22;;;;;;;10.40;1.97;;;1.50;99.90;;;;;;5026812;28;20475;-68
2024/01/15 05:39:48;;;;;;;10.73;2.13;;;1.50;99.90;;;;;;5029523;28;20036;-67
2024/01/15 05:42:13;;;;;;;10.30;0.93;;;1.50;99.90;;;;;;5030235;28;20535;-67
2024/01/15 05:44:39;;;;;;;9.17;1.80;;;1.50;99.90;;;;;;5030525;28;20034;-67
2024/01/15 05:47:05;;;;;;;11.80;1.40;;;1.40;99.90;;;;;;5029280;28;20100;-68
2024/01/15 05:49:30;;;;;;;7.53;1.10;;;1.40;99.90;;;;;;5030401;28;20040;-67
2024/01/15 05:51:56;;;;;;;7.50;0.87;;;1.30;99.90;;;;;;5028263;28;20318;-67
2024/01/15 05:54:21;;;;;;;8.30;1.03;;;1.30;99.90;;;;;;5030481;28;20033;-67
2024/01/15 05:56:47;;;;;;;7.13;1.17;;;1.30;99.90;;;;;;5028077;28;20045;-67
2024/01/15 05:59:12;;;;;;;8.23;0.70;;;1.20;99.90;;;;;;5029412;28;20153;-67
2024/01/15 06:01:38;;;;;;;12.93;2.67;;;1.20;99.90;;;;;;5050475;28;20037;-67
2024/01/15 06:04:04;;;;;;;6.40;0.77;;;1.20;99.90;;;;;;5029997;28;20041;-67
2024/01/15 06:06:29;;;;;;;12.93;2.40;;;1.20;99.90;;;;;;5028817;28;20037;-67
2024/01/15 06:08:55;;;;;;;9.43;1.30;;;1.20;99.90;;;;;;5029978;28;20036;-67
2024/01/15 06:11:20;;;;;;;7.43;1.17;;;1.20;99.90;;;;;;5025235;28;20045;-67
2024/01/15 06:13:46;;;;;;;5.73;1.27;;;1.20;99.90;;;;;;5034371;28;20446;-67
2024/01/15 06:16:14;;;;;;;8.03;1.20;;;1.20;99.90;;;;;;5028965;28;20048;-68
2024/01/15 06:18:40;;;;;;;13.00;0.73;;;1.20;99.90;;;;;;5026107;28;20479;-67
2024/01/15 06:21:05;;;;;;;7.30;0.90;;;1.30;99.90;;;;;;5027274;28;20053;-67
2024/01/15 06:23:31;;;;;;;8.23;0.70;;;1.30;99.90;;;;;;5029747;28;20071;-67
2024/01/15 06:25:57;;;;;;;7.60;0.90;;;1.30;99.90;;;;;;5028280;28;20885;-67
2024/01/15 06:28:22;;;;;;;6.73;1.53;;;1.30;99.90;;;;;;5024944;28;20160;-67
2024/01/15 06:30:48;;;;;;;14.27;1.00;;;1.30;99.90;;;;;;5029514;28;20485;-67
2024/01/15 06:33:13;;;;;;;6.80;0.80;;;1.30;99.90;;;;;;5027455;28;20085;-67
2024/01/15 06:35:39;;;;;;;11.77;1.33;;;1.30;99.90;;;;;;5029263;28;20060;-67
2024/01/15 06:38:05;;;;;;;10.83;1.50;;;1.20;99.90;;;;;;5027059;28;20052;-67
2024/01/15 06:40:30;;;;;;;9.60;0.87;;;1.20;99.90;;;;;;5029236;28;20041;-67
2024/01/15 06:42:56;;;;;;;10.03;1.60;;;1.20;99.90;;;;;;5029641;28;20512;-68
2024/01/15 06:45:21;;;;;;;5.50;1.03;;;1.20;99.90;;;;;;5028022;28;20046;-67
2024/01/15 06:47:47;;;;;;;7.23;1.20;;;1.20;99.90;;;;;;5026971;28;20034;-66
2024/01/15 06:50:12;;;;;;;8.70;1.13;;;1.30;99.90;;;;;;5020418;28;20520;-66
2024/01/15 06:52:38;;;;;;;5.57;0.70;;;1.20;99.90;;;;;;5009609;28;20125;-67
2024/01/15 06:55:05;;;;;;;6.23;0.50;;;1.20;99.90;;;;;;5023406;28;20120;-67
2024/01/15 06:57:31;;;;;;;7.38;1.25;;;1.20;99.90;;;;;;5029539;28;20455;-67
2024/01/15 06:59:56;;;;;;;4.63;0.50;;;1.20;99.90;;;;;;5045461;28;20026;-67
2024/01/15 07:02:22;;;;;;;8.53;1.30;;;1.20;99.90;;;;;;5036310;28;20041;-67
2024/01/15 07:04:48;;;;;;;5.50;0.50;;;1.20;99.90;;;;;;5021039;28;20041;-67
2024/01/15 07:07:13;;;;;;;9.33;0.63;;;1.10;99.90;;;;;;5030421;28;20033;-66
2024/01/15 07:09:39;;;;;;;4.33;0.57;;;1.10;99.90;;;;;;5022329;28;20428;-67
2024/01/15 07:12:05;;;;;;;3.83;0.80;;;1.10;99.90;;;;;;5030484;28;20545;-67
2024/01/15 07:14:30;;;;;;;6.05;0.77;;;1.10;99.90;;;;;;5026789;28;20044;-67
2024/01/15 07:16:56;;;;;;;7.20;0.80;;;1.10;99.90;;;;;;5029406;28;20068;-69
2024/01/15 07:19:21;;;;;;;5.37;1.10;;;1.10;99.90;;;;;;5042839;28;20052;-67
2024/01/15 07:21:47;;;;;;;2.83;0.60;;;1.00;99.90;;;;;;5045706;28;20256;-67
2024/01/15 07:24:13;;;;;;;6.63;0.87;;;1.00;99.90;;;;;;5027156;28;20112;-67
2024/01/15 07:26:39;;;;;;;9.63;1.13;;;1.00;99.90;;;;;;5028638;28;20437;-67
2024/01/15 07:29:05;;;;;;;5.38;1.17;;;1.00;99.90;;;;;;5029328;28;21035;-67
2024/01/15 07:31:30;;;;;;;6.73;1.63;;;1.00;99.90;;;;;;5018115;28;20045;-68
2024/01/15 07:33:56;;;;;;;8.18;2.28;;;1.00;99.90;;;;;;5018490;28;20047;-67
2024/01/15 07:36:21;;;;;;;7.37;1.80;;;1.00;99.90;;;;;;5025486;28;20385;-67
2024/01/15 07:38:47;;;;;;;4.73;1.37;;;1.00;99.90;;;;;;5027769;28;20036;-67
2024/01/15 07:41:14;;;;;;;7.10;2.40;;;1.00;99.90;;;;;;5029300;28;20045;-66
2024/01/15 07:43:39;;;;;;;13.23;2.22;;;1.10;99.90;;;;;;5032600;28;20081;-67
2024/01/15 07:46:05;;;;;;;15.67;1.87;;;1.00;99.90;;;;;;5039908;28;20080;-67
2024/01/15 07:48:32;;;;;;;16.58;1.48;;;1.00;99.90;;;;;;5032787;28;20440;-67
2024/01/15 07:50:58;;;;;;;6.63;1.43;;;1.00;99.90;;;;;;5025630;28;20095;-67
2024/01/15 07:53:23;;;;;;;10.50;2.03;;;1.10;99.90;;;;;;5033051;28;20423;-67
2024/01/15 07:55:49;;;;;;;9.30;1.88;;;1.00;99.90;;;;;;5011425;28;20488;-67
2024/01/15 07:58:15;;;;;;;8.73;2.00;;;1.00;99.90;;;;;;5026455;28;20041;-67
2024/01/15 08:00:40;;;;;;;11.83;1.40;;;1.10;99.90;;;;;;5027880;28;20120;-67
2024/01/15 08:03:06;;;;;;;5.77;1.77;;;1.10;99.90;;;;;;5018771;28;20040;-68
2024/01/15 08:05:32;;;;;;;9.43;1.40;;;1.10;99.90;;;;;;5022659;28;20041;-69
2024/01/15 08:07:58;;;;;;;8.70;1.63;;;1.10;99.90;;;;;;5026328;28;20160;-69
2024/01/15 08:10:23;;;;;;;10.20;2.27;;;1.10;99.90;;;;;;5018790;28;20037;-69
2024/01/15 08:12:49;;;;;;;11.73;1.63;;;1.10;99.90;;;;;;5025850;28;20404;-68
2024/01/15 08:15:14;;;;;;;12.43;1.77;;;1.10;99.90;;;;;;5024479;28;20047;-67
2024/01/15 08:17:40;;;;;;;11.90;2.00;;;1.10;99.90;;;;;;5028919;28;20049;-69
2024/01/15 08:20:06;;;;;;;11.53;1.93;;;1.20;99.90;;;;;;5030060;28;20124;-68
2024/01/15 08:22:32;;;;;;;6.50;0.93;;;1.30;99.90;;;;;;5010420;28;20045;-68
2024/01/15 08:24:57;;;;;;;9.97;1.70;;;1.40;99.90;;;;;;5032468;28;20067;-69
2024/01/15 08:27:23;;;;;;;8.00;1.47;;;1.50;99.90;;;;;;5021814;28;20034;-69
2024/01/15 08:29:49;;;;;;;12.93;1.30;;;1.80;99.90;;;;;;5032265;28;20053;-68
2024/01/15 08:32:15;;;;;;;6.13;0.83;;;1.90;99.90;;;;;;5031917;28;20033;-68
2024/01/15 08:34:42;;;;;;;5.82;1.23;;;2.00;99.90;;;;;;5024579;28;20323;-67
2024/01/15 08:37:07;;;;;;;10.27;1.60;;;2.10;99.90;;;;;;5030973;28;20114;-66
2024/01/15 08:39:33;;;;;;;8.93;0.73;;;2.40;99.90;;;;;;5020602;28;20472;-66
2024/01/15 08:41:59;;;;;;;10.10;1.20;;;3.00;99.90;;;;;;5020949;28;20078;-70
2024/01/15 08:44:24;;;;;;;10.07;1.53;;;3.60;99.90;;;;;;5019397;28;20080;-69
2024/01/15 08:46:50;;;;;;;8.27;0.90;;;4.30;99.90;;;;;;5022072;28;20043;-67
2024/01/15 08:49:15;;;;;;;11.07;0.90;;;5.00;99.90;;;;;;5023480;28;20037;-67
2024/01/15 08:51:41;;;;;;;3.00;0.50;;;5.70;99.90;;;;;;5024833;28;20485;-67
2024/01/15 08:54:08;;;;;;;9.80;1.10;;;6.30;99.90;;;;;;5033974;28;20048;-67
2024/01/15 08:56:34;;;;;;;3.13;0.60;;;6.80;99.90;;;;;;5032832;28;20109;-67
2024/01/15 08:58:59;;;;;;;5.93;0.60;;;7.10;99.90;;;;;;5026510;28;20170;-68
2024/01/15 09:01:25;;;;;;;7.57;1.73;;;7.00;99.90;;;;;;5024541;28;20559;-68
2024/01/15 09:03:51;;;;;;;3.47;0.80;;;6.30;99.90;;;;;;5018522;28;20397;-66
2024/01/15 09:06:17;;;;;;;6.23;0.80;;;5.50;99.90;;;;;;5028321;28;20404;-67
2024/01/15 09:08:42;;;;;;;6.73;0.70;;;4.80;99.90;;;;;;5018730;28;20293;-67
2024/01/15 09:11:08;;;;;;;6.17;1.00;;;4.10;99.90;;;;;;5038004;28;20036;-68
2024/01/15 09:13:33;;;;;;;4.97;1.10;;;4.00;99.90;;;;;;5045907;28;20033;-70
2024/01/15 09:15:59;;;;;;;17.27;2.27;;;4.20;99.90;;;;;;5029683;28;20493;-68
2024/01/15 09:18:25;;;;;;;7.40;1.17;;;4.40;99.90;;;;;;5037620;28;20051;-68
2024/01/15 09:20:51;;;;;;;7.57;1.13;;;4.70;99.90;;;;;;5033157;28;20124;-68
2024/01/15 09:23:16;;;;;;;10.73;1.03;;;5.00;99.90;;;;;;5026174;28;20068;-69
2024/01/15 09:25:42;;;;;;;7.10;1.07;;;5.20;99.90;;;;;;5024398;28;20476;-69
2024/01/15 09:28:08;;;;;;;7.53;1.43;;;5.10;99.90;;;;;;5040353;28;20315;-68
2024/01/15 09:30:33;;;;;;;8.67;1.20;;;4.60;99.90;;;;;;5044715;28;20051;-69
2024/01/15 09:32:59;;;;;;;9.07;1.30;;;4.20;99.90;;;;;;5024389;28;20036;-69
2024/01/15 09:35:24;;;;;;;4.17;1.33;;;4.10;99.90;;;;;;5032978;28;20068;-69
2024/01/15 09:37:50;;;;;;;4.33;0.80;;;4.00;99.90;;;;;;5025758;28;20042;-69
2024/01/15 09:40:16;;;;;;;5.83;0.93;;;4.20;99.90;;;;;;5023610;28;20041;-69
2024/01/15 09:42:42;;;;;;;6.30;1.45;;;4.60;99.90;;;;;;5020441;28;20124;-68
2024/01/15 09:45:09;;;;;;;7.38;0.52;;;5.00;99.90;;;;;;5023413;28;20664;-68
2024/01/15 09:47:38;;;;;;;4.18;0.55;;;5.30;99.90;;;;;;5021526;28;20079;-67
2024/01/15 09:50:04;;;;;;;3.10;0.80;;;5.30;99.90;;;;;;5023903;28;20650;-68
2024/01/15 09:52:30;;;;;;;10.48;0.90;;;4.80;99.90;;;;;;5021895;28;20045;-67
2024/01/15 09:55:00;;;;;;;5.82;0.57;;;4.20;99.90;;;;;;5024306;28;20033;-66
2024/01/15 09:57:25;;;;;;;8.20;1.13;;;3.60;99.90;;;;;;5026642;28;20079;-67
2024/01/15 09:59:53;;;;;;;4.90;0.55;;;3.20;99.90;;;;;;5016708;28;20045;-66
2024/01/15 10:02:18;;;;;;;5.68;0.60;;;2.90;99.90;;;;;;5017149;28;20102;-66
2024/01/15 10:04:45;;;;;;;5.97;0.90;;;2.80;99.90;;;;;;5027864;28;20499;-65
2024/01/15 10:07:15;;;;;;;2.67;0.45;;;2.90;99.90;;;;;;5029733;28;20044;-66
2024/01/15 10:09:41;;;;;;;5.38;1.33;;;3.00;99.90;;;;;;5018449;28;20128;-66
2024/01/15 10:12:09;;;;;;;7.30;0.97;;;3.10;99.90;;;;;;5017949;28;20515;-65
2024/01/15 10:14:34;;;;;;;6.55;0.82;;;3.10;99.90;;;;;;5022678;28;20071;-65
2024/01/15 10:17:00;;;;;;;12.87;1.17;;;3.20;99.90;;;;;;5021164;28;20463;-65
2024/01/15 10:19:26;;;;;;;10.57;1.13;;;3.30;99.90;;;;;;5026802;28;20041;-66
2024/01/15 10:21:51;;;;;;;3.47;0.63;;;3.40;99.90;;;;;;5020345;28;20295;-65
2024/01/15 10:24:17;;;;;;;7.68;1.58;;;3.40;99.90;;;;;;5024982;28;20041;-66
2024/01/15 10:26:44;;;;;;;4.30;1.00;;;3.60;99.90;;;;;;5018746;28;20041;-65
2024/01/15 10:29:11;;;;;;;7.25;1.25;;;3.80;99.90;;;;;;5022193;28;20040;-65
2024/01/15 10:31:37;;;;;;;10.15;0.73;;;4.00;99.90;;;;;;5024102;28;20095;-65
2024/01/15 10:34:15;;;;;;;4.18;0.80;;;4.20;99.90;;;;;;5024677;28;20083;-66
2024/01/15 10:36:41;;;;;;;5.35;0.88;;;4.40;99.90;;;;;;5023285;28;20515;-65
2024/01/15 10:39:07;;;;;;;2.70;0.40;;;4.50;99.90;;;;;;5027849;28;20033;-66
2024/01/15 10:41:33;;;;;;;5.53;0.85;;;4.30;99.90;;;;;;5023252;28;20053;-65
2024/01/15 10:43:59;;;;;;;7.15;1.95;;;4.40;99.90;;;;;;5024580;28;20044;-65
2024/01/15 10:46:25;;;;;;;1.37;0.30;;;4.90;99.90;;;;;;5024171;28;20323;-65
2024/01/15 10:48:51;;;;;;;2.67;0.32;;;5.20;99.90;;;;;;5023087;28;20071;-64
2024/01/15 10:51:17;;;;;;;9.97;1.50;;;5.00;99.90;;;;;;5019350;28;20065;-65
2024/01/15 10:53:45;;;;;;;5.88;0.60;;;4.50;99.90;;;;;;5029974;28;20651;-64
2024/01/15 10:56:12;;;;;;;4.35;0.60;;;4.10;99.90;;;;;;5029489;28;20063;-66
2024/01/15 10:58:39;;;;;;;5.00;0.47;;;3.70;99.90;;;;;;5024566;28;20436;-65
2024/01/15 11:01:06;;;;;;;2.53;0.28;;;3.40;99.90;;;;;;5024530;28;20134;-65
2024/01/15 11:03:32;;;;;;;5.32;0.73;;;3.10;99.90;;;;;;5027585;28;20056;-66
2024/01/15 11:05:59;;;;;;;1.20;0.30;;;3.00;99.90;;;;;;5024827;28;20045;-66
2024/01/15 11:08:25;;;;;;;6.93;0.75;;;2.90;99.90;;;;;;5017043;28;20397;-66
2024/01/15 11:10:52;;;;;;;3.63;0.30;;;2.80;99.90;;;;;;5022048;28;20059;-65
2024/01/15 11:13:22;;;;;;;2.38;0.30;;;2.80;99.90;;;;;;5019838;28;20495;-64
2024/01/15 11:16:06;;;;;;;4.82;0.45;;;2.70;99.90;;;;;;5016966;28;20068;-65
2024/01/15 11:19:01;;;;;;;7.97;0.30;;;2.70;99.90;;;;;;5020215;28;20407;-65
2024/01/15 11:21:29;;;;;;;7.03;0.60;;;2.60;99.90;;;;;;5018834;28;20092;-66
2024/01/15 11:23:57;;;;;;;7.00;0.82;;;2.60;99.90;;;;;;5021035;28;20141;-66
2024/01/15 11:26:30;;;;;;;10.50;0.65;;;2.70;99.90;;;;;;5020451;28;20053;-65
2024/01/15 11:29:00;;;;;;;4.07;0.60;;;2.80;99.90;;;;;;5022891;28;20103;-65
2024/01/15 11:31:28;;;;;;;3.88;0.35;;;2.80;99.90;;;;;;5023238;28;20040;-66
2024/01/15 11:33:55;;;;;;;8.18;0.70;;;2.80;99.90;;;;;;5029664;28;20061;-65
2024/01/15 11:36:21;;;;;;;;;;;2.70;99.90;;;;;;5030462;28;20665;-65
2024/01/15 11:38:46;;;;;;;1.80;0.30;;;2.70;99.90;;;;;;5030198;28;19979;-65
2024/01/15 11:41:18;;;;;;;2.97;1.47;;;2.60;99.90;;;;;;5029841;28;20037;-64
2024/01/15 11:43:44;;;;;;;4.38;1.10;;;2.60;99.90;;;;;;5027579;28;20500;-65
2024/01/15 11:46:13;;;;;;;3.13;0.43;;;2.50;99.90;;;;;;5026736;28;20072;-66
2024/01/15 11:48:46;;;;;;;2.88;0.30;;;2.50;99.90;;;;;;5023214;28;20052;-65
2024/01/15 11:51:12;;;;;;;2.15;0.50;;;2.50;99.90;;;;;;5026534;28;20045;-64
2024/01/15 11:53:52;;;;;;;1.95;0.50;;;2.50;99.90;;;;;;5022725;28;20060;-65
2024/01/15 11:56:22;;;;;;;2.45;0.40;;;2.60;99.90;;;;;;5023342;28;20113;-65
2024/01/15 11:58:47;;;;;;;1.13;0.35;;;2.90;99.90;;;;;;5021496;28;20037;-65
2024/01/15 12:01:13;;;;;;;6.30;0.63;;;3.00;99.90;;;;;;5025838;28;20037;-65
2024/01/15 12:03:39;;;;;;;3.25;0.43;;;3.20;99.90;;;;;;5022285;28;20830;-66
2024/01/15 12:06:09;;;;;;;3.13;0.50;;;3.30;99.90;;;;;;5022468;28;20088;-66
2024/01/15 12:08:36;;;;;;;1.40;0.30;;;3.20;99.90;;;;;;5023370;28;20397;-64
2024/01/15 12:11:14;;;;;;;2.47;0.20;;;3.10;99.90;;;;;;5019320;28;20596;-64
2024/01/15 12:13:40;;;;;;;2.47;0.40;;;3.00;99.90;;;;;;5021704;28;20116;-65
2024/01/15 12:16:05;;;;;;;4.43;1.07;;;2.90;99.90;;;;;;5033863;28;20072;-65
2024/01/15 12:18:31;;;;;;;7.13;0.57;;;2.80;99.90;;;;;;5027925;28;20102;-65
2024/01/15 12:20:58;;;;;;;1.10;0.43;;;2.80;99.90;;;;;;5024681;28;20049;-64
2024/01/15 12:23:24;;;;;;;2.35;0.30;;;2.80;99.90;;;;;;5009399;28;20051;-64
2024/01/15 12:25:50;;;;;;;1.73;0.40;;;2.70;99.90;;;;;;5020217;28;20404;-64
2024/01/15 12:28:16;;;;;;;2.15;0.40;;;2.70;99.90;;;;;;5024119;28;20308;-64
2024/01/15 12:30:42;;;;;;;4.63;0.63;;;2.60;99.90;;;;;;5017069;28;20033;-64
2024/01/15 12:33:08;;;;;;;2.38;0.55;;;2.50;99.90;;;;;;5024381;28;20041;-64
2024/01/15 12:35:34;;;;;;;2.35;0.60;;;2.40;99.90;;;;;;5027473;28;20523;-64
2024/01/15 12:38:04;;;;;;;2.60;0.50;;;2.40;99.90;;;;;;5022491;28;20053;-64
2024/01/15 12:40:30;;;;;;;2.65;0.30;;;2.30;99.90;;;;;;5022847;28;20038;-64
2024/01/15 12:42:56;;;;;;;3.53;0.30;;;2.20;99.90;;;;;;5026739;28;20462;-65
2024/01/15 12:45:22;;;;;;;3.75;0.50;;;2.10;99.90;;;;;;5023465;28;20049;-65
2024/01/15 12:47:48;;;;;;;2.63;0.60;;;2.10;99.90;;;;;;5024265;28;20106;-66
2024/01/15 12:50:13;;;;;;;3.10;0.43;;;2.10;99.90;;;;;;5027576;28;20600;-67